sensor_id;sensor_type;location;lat;lon;timestamp;P1;durP1;ratioP1;P2;durP2;ratioP2
4210;SDS011;2119;48.828;12.396;2023-04-27T00:03:27;5.03;;;4.60;;
4210;SDS011;2119;48.828;12.396;2023-04-27T00:08:27;7.50;;;4.50;;
4210;SDS011;2119;48.828;12.396;2023-04-27T00:18:32;9.43;;;5.23;;
4210;SDS011;2119;48.828;12.396;2023-04-27T00:23:45;5.37;;;4.40;;
4210;SDS011;2119;48.828;12.396;2023-04-27T00:28:47;8.33;;;4.33;;
4210;SDS011;2119;48.828;12.396;2023-04-27T00:33:49;5.13;;;4.50;;
4210;SDS011;2119;48.828;12.396;2023-04-27T00:38:50;4.20;;;3.90;;
4210;SDS011;2119;48.828;12.396;2023-04-27T00:43:50;4.73;;;4.17;;
4210;SDS011;2119;48.828;12.396;2023-04-27T00:48:51;6.53;;;5.10;;
4210;SDS011;2119;48.828;12.396;2023-04-27T00:53:52;5.60;;;4.57;;
4210;SDS011;2119;48.828;12.396;2023-04-27T00:58:54;5.20;;;4.70;;
4210;SDS011;2119;48.828;12.396;2023-04-27T01:03:58;5.93;;;5.20;;
4210;SDS011;2119;48.828;12.396;2023-04-27T01:08:58;9.20;;;4.97;;
4210;SDS011;2119;48.828;12.396;2023-04-27T01:14:02;7.20;;;4.57;;
4210;SDS011;2119;48.828;12.396;2023-04-27T01:19:02;6.30;;;5.53;;
4210;SDS011;2119;48.828;12.396;2023-04-27T01:24:07;9.13;;;5.70;;
4210;SDS011;2119;48.828;12.396;2023-04-27T01:29:08;5.67;;;4.50;;
4210;SDS011;2119;48.828;12.396;2023-04-27T01:34:09;4.57;;;4.10;;
4210;SDS011;2119;48.828;12.396;2023-04-27T01:39:10;4.60;;;4.20;;
4210;SDS011;2119;48.828;12.396;2023-04-27T01:44:12;4.77;;;4.37;;
4210;SDS011;2119;48.828;12.396;2023-04-27T01:49:13;4.97;;;4.57;;
4210;SDS011;2119;48.828;12.396;2023-04-27T01:54:13;5.23;;;4.83;;
4210;SDS011;2119;48.828;12.396;2023-04-27T01:59:14;6.65;;;4.90;;
4210;SDS011;2119;48.828;12.396;2023-04-27T02:04:14;5.20;;;4.80;;
4210;SDS011;2119;48.828;12.396;2023-04-27T02:09:15;7.10;;;5.10;;
4210;SDS011;2119;48.828;12.396;2023-04-27T02:14:21;5.50;;;5.00;;
4210;SDS011;2119;48.828;12.396;2023-04-27T02:19:21;6.13;;;5.13;;
4210;SDS011;2119;48.828;12.396;2023-04-27T02:24:24;6.67;;;4.87;;
4210;SDS011;2119;48.828;12.396;2023-04-27T02:29:28;5.50;;;4.70;;
4210;SDS011;2119;48.828;12.396;2023-04-27T02:34:28;4.80;;;4.40;;
4210;SDS011;2119;48.828;12.396;2023-04-27T02:44:32;7.47;;;4.73;;
4210;SDS011;2119;48.828;12.396;2023-04-27T02:49:33;4.87;;;4.47;;
4210;SDS011;2119;48.828;12.396;2023-04-27T02:54:33;4.77;;;4.43;;
4210;SDS011;2119;48.828;12.396;2023-04-27T02:59:34;5.60;;;4.75;;
4210;SDS011;2119;48.828;12.396;2023-04-27T03:04:35;4.68;;;4.28;;
4210;SDS011;2119;48.828;12.396;2023-04-27T03:09:35;15.30;;;9.50;;
4210;SDS011;2119;48.828;12.396;2023-04-27T03:14:37;7.30;;;4.67;;
4210;SDS011;2119;48.828;12.396;2023-04-27T03:19:39;5.10;;;4.70;;
4210;SDS011;2119;48.828;12.396;2023-04-27T03:24:41;6.40;;;5.63;;
4210;SDS011;2119;48.828;12.396;2023-04-27T03:29:41;21.10;;;13.17;;
4210;SDS011;2119;48.828;12.396;2023-04-27T03:34:42;14.68;;;9.80;;
4210;SDS011;2119;48.828;12.396;2023-04-27T03:39:44;12.13;;;7.95;;
4210;SDS011;2119;48.828;12.396;2023-04-27T03:44:44;9.90;;;7.97;;
4210;SDS011;2119;48.828;12.396;2023-04-27T03:49:45;8.27;;;6.70;;
4210;SDS011;2119;48.828;12.396;2023-04-27T03:54:45;11.93;;;8.73;;
4210;SDS011;2119;48.828;12.396;2023-04-27T03:59:45;20.30;;;12.63;;
4210;SDS011;2119;48.828;12.396;2023-04-27T04:04:46;26.00;;;15.97;;
4210;SDS011;2119;48.828;12.396;2023-04-27T04:09:46;7.63;;;6.90;;
4210;SDS011;2119;48.828;12.396;2023-04-27T04:14:46;9.23;;;6.30;;
4210;SDS011;2119;48.828;12.396;2023-04-27T04:19:47;7.00;;;6.30;;
4210;SDS011;2119;48.828;12.396;2023-04-27T04:24:48;8.43;;;7.63;;
4210;SDS011;2119;48.828;12.396;2023-04-27T04:29:49;6.90;;;6.30;;
4210;SDS011;2119;48.828;12.396;2023-04-27T04:34:49;6.90;;;6.17;;
4210;SDS011;2119;48.828;12.396;2023-04-27T04:39:52;9.70;;;6.50;;
4210;SDS011;2119;48.828;12.396;2023-04-27T04:44:53;7.73;;;5.63;;
4210;SDS011;2119;48.828;12.396;2023-04-27T04:55:04;8.70;;;5.37;;
4210;SDS011;2119;48.828;12.396;2023-04-27T05:00:04;7.87;;;6.07;;
4210;SDS011;2119;48.828;12.396;2023-04-27T05:05:17;6.17;;;5.60;;
4210;SDS011;2119;48.828;12.396;2023-04-27T05:10:19;5.43;;;4.60;;
4210;SDS011;2119;48.828;12.396;2023-04-27T05:20:44;5.87;;;5.20;;
4210;SDS011;2119;48.828;12.396;2023-04-27T05:25:44;16.80;;;6.13;;
4210;SDS011;2119;48.828;12.396;2023-04-27T05:30:45;8.83;;;7.93;;
4210;SDS011;2119;48.828;12.396;2023-04-27T05:35:48;10.50;;;6.17;;
4210;SDS011;2119;48.828;12.396;2023-04-27T05:41:04;11.90;;;10.20;;
4210;SDS011;2119;48.828;12.396;2023-04-27T05:46:05;34.50;;;21.63;;
4210;SDS011;2119;48.828;12.396;2023-04-27T05:51:07;14.32;;;12.60;;
4210;SDS011;2119;48.828;12.396;2023-04-27T05:56:12;10.20;;;7.60;;
4210;SDS011;2119;48.828;12.396;2023-04-27T06:01:17;9.70;;;7.40;;
4210;SDS011;2119;48.828;12.396;2023-04-27T06:06:26;11.83;;;6.80;;
4210;SDS011;2119;48.828;12.396;2023-04-27T06:11:38;8.20;;;7.30;;
4210;SDS011;2119;48.828;12.396;2023-04-27T06:16:42;6.40;;;5.80;;
4210;SDS011;2119;48.828;12.396;2023-04-27T06:21:45;10.43;;;7.63;;
4210;SDS011;2119;48.828;12.396;2023-04-27T06:26:50;7.40;;;6.47;;
4210;SDS011;2119;48.828;12.396;2023-04-27T06:31:50;11.90;;;7.30;;
4210;SDS011;2119;48.828;12.396;2023-04-27T06:36:51;6.70;;;6.10;;
4210;SDS011;2119;48.828;12.396;2023-04-27T06:41:53;8.07;;;7.28;;
4210;SDS011;2119;48.828;12.396;2023-04-27T06:46:56;9.43;;;7.57;;
4210;SDS011;2119;48.828;12.396;2023-04-27T07:02:22;11.87;;;6.60;;
4210;SDS011;2119;48.828;12.396;2023-04-27T07:07:24;7.50;;;6.38;;
4210;SDS011;2119;48.828;12.396;2023-04-27T07:12:27;6.57;;;5.83;;
4210;SDS011;2119;48.828;12.396;2023-04-27T07:17:31;6.87;;;6.20;;
4210;SDS011;2119;48.828;12.396;2023-04-27T07:22:32;7.20;;;5.77;;
4210;SDS011;2119;48.828;12.396;2023-04-27T07:27:41;7.63;;;6.10;;
4210;SDS011;2119;48.828;12.396;2023-04-27T07:32:51;5.67;;;5.03;;
4210;SDS011;2119;48.828;12.396;2023-04-27T07:37:58;5.80;;;5.40;;
4210;SDS011;2119;48.828;12.396;2023-04-27T07:43:12;6.57;;;4.13;;
4210;SDS011;2119;48.828;12.396;2023-04-27T07:48:20;6.30;;;4.77;;
4210;SDS011;2119;48.828;12.396;2023-04-27T07:53:22;8.83;;;5.73;;
4210;SDS011;2119;48.828;12.396;2023-04-27T07:58:23;5.50;;;5.00;;
4210;SDS011;2119;48.828;12.396;2023-04-27T08:03:24;6.27;;;4.60;;
4210;SDS011;2119;48.828;12.396;2023-04-27T08:08:27;4.75;;;4.20;;
4210;SDS011;2119;48.828;12.396;2023-04-27T08:19:05;4.83;;;3.93;;
4210;SDS011;2119;48.828;12.396;2023-04-27T08:24:06;4.93;;;4.33;;
4210;SDS011;2119;48.828;12.396;2023-04-27T08:29:23;3.90;;;3.60;;
4210;SDS011;2119;48.828;12.396;2023-04-27T08:39:31;6.30;;;4.20;;
4210;SDS011;2119;48.828;12.396;2023-04-27T08:44:36;7.35;;;4.13;;
4210;SDS011;2119;48.828;12.396;2023-04-27T08:49:38;4.93;;;3.80;;
4210;SDS011;2119;48.828;12.396;2023-04-27T08:54:40;4.93;;;4.00;;
4210;SDS011;2119;48.828;12.396;2023-04-27T08:59:42;5.32;;;4.50;;
4210;SDS011;2119;48.828;12.396;2023-04-27T09:04:44;6.20;;;3.70;;
4210;SDS011;2119;48.828;12.396;2023-04-27T09:09:45;5.50;;;5.00;;
4210;SDS011;2119;48.828;12.396;2023-04-27T09:15:02;12.47;;;4.20;;
4210;SDS011;2119;48.828;12.396;2023-04-27T09:25:29;5.67;;;4.37;;
4210;SDS011;2119;48.828;12.396;2023-04-27T09:30:35;8.10;;;4.43;;
4210;SDS011;2119;48.828;12.396;2023-04-27T09:35:39;5.03;;;4.20;;
4210;SDS011;2119;48.828;12.396;2023-04-27T09:40:51;4.50;;;3.87;;
4210;SDS011;2119;48.828;12.396;2023-04-27T09:46:00;5.20;;;3.80;;
4210;SDS011;2119;48.828;12.396;2023-04-27T09:51:15;3.70;;;3.40;;
4210;SDS011;2119;48.828;12.396;2023-04-27T10:01:53;4.03;;;3.10;;
4210;SDS011;2119;48.828;12.396;2023-04-27T10:07:08;5.23;;;3.53;;
4210;SDS011;2119;48.828;12.396;2023-04-27T10:12:21;4.53;;;4.13;;
4210;SDS011;2119;48.828;12.396;2023-04-27T10:22:47;3.90;;;3.23;;
4210;SDS011;2119;48.828;12.396;2023-04-27T10:27:51;4.00;;;3.70;;
4210;SDS011;2119;48.828;12.396;2023-04-27T10:32:57;3.83;;;3.50;;
4210;SDS011;2119;48.828;12.396;2023-04-27T10:38:04;3.83;;;3.53;;
4210;SDS011;2119;48.828;12.396;2023-04-27T10:48:28;3.63;;;3.30;;
4210;SDS011;2119;48.828;12.396;2023-04-27T10:53:44;6.33;;;4.23;;
4210;SDS011;2119;48.828;12.396;2023-04-27T10:58:45;3.73;;;3.43;;
4210;SDS011;2119;48.828;12.396;2023-04-27T11:03:54;7.60;;;3.90;;
4210;SDS011;2119;48.828;12.396;2023-04-27T11:08:56;3.70;;;3.40;;
4210;SDS011;2119;48.828;12.396;2023-04-27T11:14:07;4.00;;;3.80;;
4210;SDS011;2119;48.828;12.396;2023-04-27T11:19:08;4.30;;;3.63;;
4210;SDS011;2119;48.828;12.396;2023-04-27T11:24:23;5.83;;;3.47;;
4210;SDS011;2119;48.828;12.396;2023-04-27T11:29:23;6.97;;;3.67;;
4210;SDS011;2119;48.828;12.396;2023-04-27T11:34:25;3.70;;;3.37;;
4210;SDS011;2119;48.828;12.396;2023-04-27T11:39:38;3.30;;;3.10;;
4210;SDS011;2119;48.828;12.396;2023-04-27T11:44:53;3.67;;;3.37;;
4210;SDS011;2119;48.828;12.396;2023-04-27T11:50:02;3.07;;;2.87;;
4210;SDS011;2119;48.828;12.396;2023-04-27T11:55:16;5.23;;;4.00;;
4210;SDS011;2119;48.828;12.396;2023-04-27T12:00:31;3.37;;;3.03;;
4210;SDS011;2119;48.828;12.396;2023-04-27T12:05:34;4.90;;;3.47;;
4210;SDS011;2119;48.828;12.396;2023-04-27T12:10:35;5.00;;;3.60;;
4210;SDS011;2119;48.828;12.396;2023-04-27T12:15:37;4.40;;;3.67;;
4210;SDS011;2119;48.828;12.396;2023-04-27T12:20:53;3.67;;;3.37;;
4210;SDS011;2119;48.828;12.396;2023-04-27T12:31:06;4.40;;;3.40;;
4210;SDS011;2119;48.828;12.396;2023-04-27T12:47:06;3.93;;;3.63;;
4210;SDS011;2119;48.828;12.396;2023-04-27T12:52:23;4.93;;;4.20;;
4210;SDS011;2119;48.828;12.396;2023-04-27T13:02:35;3.53;;;3.33;;
4210;SDS011;2119;48.828;12.396;2023-04-27T13:12:50;4.10;;;3.80;;
4210;SDS011;2119;48.828;12.396;2023-04-27T13:17:51;4.27;;;3.87;;
4210;SDS011;2119;48.828;12.396;2023-04-27T13:23:03;9.67;;;5.00;;
4210;SDS011;2119;48.828;12.396;2023-04-27T13:28:10;4.80;;;4.40;;
4210;SDS011;2119;48.828;12.396;2023-04-27T13:33:12;4.70;;;4.30;;
4210;SDS011;2119;48.828;12.396;2023-04-27T13:38:12;4.80;;;4.40;;
4210;SDS011;2119;48.828;12.396;2023-04-27T13:43:12;4.73;;;4.17;;
4210;SDS011;2119;48.828;12.396;2023-04-27T13:48:12;4.23;;;3.93;;
4210;SDS011;2119;48.828;12.396;2023-04-27T13:53:16;5.20;;;4.80;;
4210;SDS011;2119;48.828;12.396;2023-04-27T14:03:31;4.63;;;4.23;;
4210;SDS011;2119;48.828;12.396;2023-04-27T14:08:34;5.80;;;4.27;;
4210;SDS011;2119;48.828;12.396;2023-04-27T14:13:35;4.70;;;4.40;;
4210;SDS011;2119;48.828;12.396;2023-04-27T14:18:41;4.80;;;4.30;;
4210;SDS011;2119;48.828;12.396;2023-04-27T14:23:41;5.17;;;4.77;;
4210;SDS011;2119;48.828;12.396;2023-04-27T14:28:44;6.60;;;4.50;;
4210;SDS011;2119;48.828;12.396;2023-04-27T14:33:45;6.10;;;5.30;;
4210;SDS011;2119;48.828;12.396;2023-04-27T14:38:46;4.90;;;4.53;;
4210;SDS011;2119;48.828;12.396;2023-04-27T14:43:51;5.00;;;4.50;;
4210;SDS011;2119;48.828;12.396;2023-04-27T14:48:53;5.13;;;4.60;;
4210;SDS011;2119;48.828;12.396;2023-04-27T14:53:53;5.27;;;4.20;;
4210;SDS011;2119;48.828;12.396;2023-04-27T14:58:53;5.63;;;4.57;;
4210;SDS011;2119;48.828;12.396;2023-04-27T15:09:36;4.50;;;4.10;;
4210;SDS011;2119;48.828;12.396;2023-04-27T15:14:37;4.70;;;4.30;;
4210;SDS011;2119;48.828;12.396;2023-04-27T15:19:37;4.13;;;3.73;;
4210;SDS011;2119;48.828;12.396;2023-04-27T15:24:43;3.97;;;3.70;;
4210;SDS011;2119;48.828;12.396;2023-04-27T15:29:43;5.77;;;5.23;;
4210;SDS011;2119;48.828;12.396;2023-04-27T15:34:44;4.77;;;4.20;;
4210;SDS011;2119;48.828;12.396;2023-04-27T15:39:50;5.80;;;5.23;;
4210;SDS011;2119;48.828;12.396;2023-04-27T15:45:02;5.30;;;4.47;;
4210;SDS011;2119;48.828;12.396;2023-04-27T15:50:05;4.87;;;4.20;;
4210;SDS011;2119;48.828;12.396;2023-04-27T16:00:28;4.67;;;4.27;;
4210;SDS011;2119;48.828;12.396;2023-04-27T16:05:35;4.00;;;3.70;;
4210;SDS011;2119;48.828;12.396;2023-04-27T16:10:41;4.20;;;3.80;;
4210;SDS011;2119;48.828;12.396;2023-04-27T16:15:51;5.33;;;4.83;;
4210;SDS011;2119;48.828;12.396;2023-04-27T16:20:51;5.67;;;3.77;;
4210;SDS011;2119;48.828;12.396;2023-04-27T16:25:51;5.30;;;4.90;;
4210;SDS011;2119;48.828;12.396;2023-04-27T16:31:01;4.97;;;4.43;;
4210;SDS011;2119;48.828;12.396;2023-04-27T16:36:01;4.53;;;4.10;;
4210;SDS011;2119;48.828;12.396;2023-04-27T16:46:34;5.10;;;4.20;;
4210;SDS011;2119;48.828;12.396;2023-04-27T16:56:42;5.43;;;3.80;;
4210;SDS011;2119;48.828;12.396;2023-04-27T17:01:52;3.83;;;3.53;;
4210;SDS011;2119;48.828;12.396;2023-04-27T17:07:03;4.20;;;4.00;;
4210;SDS011;2119;48.828;12.396;2023-04-27T17:22:21;6.97;;;4.27;;
4210;SDS011;2119;48.828;12.396;2023-04-27T17:27:21;4.37;;;3.77;;
4210;SDS011;2119;48.828;12.396;2023-04-27T17:32:21;5.00;;;4.50;;
4210;SDS011;2119;48.828;12.396;2023-04-27T17:37:27;4.07;;;3.65;;
4210;SDS011;2119;48.828;12.396;2023-04-27T17:42:28;5.80;;;4.87;;
4210;SDS011;2119;48.828;12.396;2023-04-27T17:47:34;6.03;;;4.70;;
4210;SDS011;2119;48.828;12.396;2023-04-27T17:52:36;7.63;;;5.13;;
4210;SDS011;2119;48.828;12.396;2023-04-27T17:57:38;7.33;;;4.90;;
4210;SDS011;2119;48.828;12.396;2023-04-27T18:02:45;6.07;;;5.67;;
4210;SDS011;2119;48.828;12.396;2023-04-27T18:07:49;6.30;;;5.80;;
4210;SDS011;2119;48.828;12.396;2023-04-27T18:13:06;7.93;;;7.30;;
4210;SDS011;2119;48.828;12.396;2023-04-27T18:18:12;7.63;;;6.67;;
4210;SDS011;2119;48.828;12.396;2023-04-27T18:28:21;11.70;;;9.70;;
4210;SDS011;2119;48.828;12.396;2023-04-27T18:33:21;14.30;;;10.77;;
4210;SDS011;2119;48.828;12.396;2023-04-27T18:43:24;10.00;;;8.43;;
4210;SDS011;2119;48.828;12.396;2023-04-27T18:48:26;7.33;;;6.70;;
4210;SDS011;2119;48.828;12.396;2023-04-27T18:53:26;7.60;;;6.10;;
4210;SDS011;2119;48.828;12.396;2023-04-27T18:58:30;11.23;;;5.83;;
4210;SDS011;2119;48.828;12.396;2023-04-27T19:03:31;6.80;;;6.20;;
4210;SDS011;2119;48.828;12.396;2023-04-27T19:13:47;7.60;;;6.67;;
4210;SDS011;2119;48.828;12.396;2023-04-27T19:23:56;18.63;;;15.80;;
4210;SDS011;2119;48.828;12.396;2023-04-27T19:28:56;8.83;;;8.03;;
4210;SDS011;2119;48.828;12.396;2023-04-27T19:33:57;10.02;;;7.82;;
4210;SDS011;2119;48.828;12.396;2023-04-27T19:39:01;8.53;;;7.17;;
4210;SDS011;2119;48.828;12.396;2023-04-27T19:44:16;7.80;;;6.80;;
4210;SDS011;2119;48.828;12.396;2023-04-27T19:49:19;7.57;;;6.70;;
4210;SDS011;2119;48.828;12.396;2023-04-27T19:54:33;8.30;;;6.50;;
4210;SDS011;2119;48.828;12.396;2023-04-27T19:59:39;7.20;;;6.60;;
4210;SDS011;2119;48.828;12.396;2023-04-27T20:04:39;6.77;;;6.13;;
4210;SDS011;2119;48.828;12.396;2023-04-27T20:09:48;10.57;;;7.50;;
4210;SDS011;2119;48.828;12.396;2023-04-27T20:14:52;7.73;;;7.00;;
4210;SDS011;2119;48.828;12.396;2023-04-27T20:20:07;12.20;;;8.70;;
4210;SDS011;2119;48.828;12.396;2023-04-27T20:25:17;13.20;;;8.40;;
4210;SDS011;2119;48.828;12.396;2023-04-27T20:30:27;12.40;;;8.73;;
4210;SDS011;2119;48.828;12.396;2023-04-27T20:35:28;8.50;;;7.70;;
4210;SDS011;2119;48.828;12.396;2023-04-27T20:40:32;9.23;;;8.33;;
4210;SDS011;2119;48.828;12.396;2023-04-27T20:45:32;23.13;;;14.27;;
4210;SDS011;2119;48.828;12.396;2023-04-27T20:50:33;32.63;;;18.10;;
4210;SDS011;2119;48.828;12.396;2023-04-27T20:55:37;18.92;;;12.13;;
4210;SDS011;2119;48.828;12.396;2023-04-27T21:00:38;15.30;;;11.40;;
4210;SDS011;2119;48.828;12.396;2023-04-27T21:05:39;16.70;;;10.13;;
4210;SDS011;2119;48.828;12.396;2023-04-27T21:10:41;12.70;;;7.90;;
4210;SDS011;2119;48.828;12.396;2023-04-27T21:15:47;11.83;;;7.90;;
4210;SDS011;2119;48.828;12.396;2023-04-27T21:20:49;9.50;;;7.30;;
4210;SDS011;2119;48.828;12.396;2023-04-27T21:25:52;10.17;;;8.20;;
4210;SDS011;2119;48.828;12.396;2023-04-27T21:30:52;13.50;;;9.90;;
4210;SDS011;2119;48.828;12.396;2023-04-27T21:35:55;17.27;;;9.63;;
4210;SDS011;2119;48.828;12.396;2023-04-27T21:46:16;11.80;;;8.37;;
4210;SDS011;2119;48.828;12.396;2023-04-27T21:51:25;8.53;;;7.30;;
4210;SDS011;2119;48.828;12.396;2023-04-27T21:56:28;8.20;;;7.30;;
4210;SDS011;2119;48.828;12.396;2023-04-27T22:01:35;10.40;;;8.40;;
4210;SDS011;2119;48.828;12.396;2023-04-27T22:06:37;7.80;;;7.10;;
4210;SDS011;2119;48.828;12.396;2023-04-27T22:11:51;9.43;;;8.17;;
4210;SDS011;2119;48.828;12.396;2023-04-27T22:17:02;8.53;;;7.27;;
4210;SDS011;2119;48.828;12.396;2023-04-27T22:22:02;7.77;;;7.07;;
4210;SDS011;2119;48.828;12.396;2023-04-27T22:27:14;8.93;;;7.10;;
4210;SDS011;2119;48.828;12.396;2023-04-27T22:32:15;8.10;;;7.40;;
4210;SDS011;2119;48.828;12.396;2023-04-27T22:37:19;7.90;;;7.10;;
4210;SDS011;2119;48.828;12.396;2023-04-27T22:42:19;7.60;;;6.90;;
4210;SDS011;2119;48.828;12.396;2023-04-27T22:47:27;8.55;;;7.70;;
4210;SDS011;2119;48.828;12.396;2023-04-27T22:52:29;8.47;;;7.17;;
4210;SDS011;2119;48.828;12.396;2023-04-27T22:57:40;6.90;;;6.20;;
4210;SDS011;2119;48.828;12.396;2023-04-27T23:02:40;8.10;;;7.30;;
4210;SDS011;2119;48.828;12.396;2023-04-27T23:07:41;8.03;;;7.33;;
4210;SDS011;2119;48.828;12.396;2023-04-27T23:12:41;8.53;;;6.90;;
4210;SDS011;2119;48.828;12.396;2023-04-27T23:17:42;7.87;;;7.17;;
4210;SDS011;2119;48.828;12.396;2023-04-27T23:22:43;33.60;;;9.07;;
4210;SDS011;2119;48.828;12.396;2023-04-27T23:27:50;9.10;;;7.27;;
4210;SDS011;2119;48.828;12.396;2023-04-27T23:32:52;6.93;;;6.00;;
4210;SDS011;2119;48.828;12.396;2023-04-27T23:37:54;6.70;;;6.10;;
4210;SDS011;2119;48.828;12.396;2023-04-27T23:42:55;7.50;;;6.70;;
4210;SDS011;2119;48.828;12.396;2023-04-27T23:47:56;12.13;;;7.33;;
4210;SDS011;2119;48.828;12.396;2023-04-27T23:53:00;7.60;;;6.90;;
4210;SDS011;2119;48.828;12.396;2023-04-27T23:58:01;7.30;;;6.60;;
